Time;durP1;ratioP1;P1;durP2;ratioP2;P2;SDS_P1;SDS_P2;PMS_P1;PMS_P2;Temp;Humidity;BMP_temperature;BMP_pressure;BME280_temperature;BME280_humidity;BME280_pressure;Samples;Min_cycle;Max_cycle;Signal;HPM_P1;HPM_P2
2023/10/10 00:00:23;;;;;;;19.63;13.00;;;;;;;;;;692997;28;837;-85
2023/10/10 00:00:55;;;;;;;18.58;13.20;;;;;;;;;;692311;28;1272;-84
2023/10/10 00:01:21;;;;;;;17.92;13.00;;;;;;;;;;691939;28;4306;-84
2023/10/10 00:01:45;;;;;;;16.55;12.50;;;;;;;;;;694307;28;878;-83
2023/10/10 00:02:20;;;;;;;17.48;12.73;;;;;;;;;;695871;28;910;-83
2023/10/10 00:02:42;;;;;;;18.30;13.13;;;;;;;;;;689703;28;1282;-84
2023/10/10 00:03:06;;;;;;;17.95;13.43;;;;;;;;;;693709;28;1427;-86
2023/10/10 00:03:27;;;;;;;17.10;13.18;;;;;;;;;;689602;28;1367;-85
2023/10/10 00:03:49;;;;;;;16.63;12.82;;;;;;;;;;687591;28;1253;-85
2023/10/10 00:04:12;;;;;;;16.85;12.68;;;;;;;;;;679983;28;4310;-83
2023/10/10 00:04:33;;;;;;;18.60;12.70;;;;;;;;;;692494;28;1286;-85
2023/10/10 00:05:03;;;;;;;18.70;12.57;;;;;;;;;;690686;28;863;-85
2023/10/10 00:05:36;;;;;;;16.63;12.85;;;;;;;;;;691635;28;1278;-85
2023/10/10 00:05:58;;;;;;;19.38;12.95;;;;;;;;;;694995;28;991;-83
2023/10/10 00:06:22;;;;;;;18.80;13.65;;;;;;;;;;693065;28;1306;-83
2023/10/10 00:06:45;;;;;;;17.50;12.68;;;;;;;;;;691976;28;1934;-84
2023/10/10 00:07:07;;;;;;;17.30;11.77;;;;;;;;;;692726;28;4328;-85
2023/10/10 00:07:30;;;;;;;15.70;12.13;;;;;;;;;;689265;28;1344;-86
2023/10/10 00:07:52;;;;;;;16.60;12.75;;;;;;;;;;692534;28;1512;-84
2023/10/10 00:08:15;;;;;;;17.70;12.90;;;;;;;;;;691822;28;1344;-86
2023/10/10 00:08:43;;;;;;;17.00;12.73;;;;;;;;;;687718;28;1422;-85
2023/10/10 00:09:08;;;;;;;17.88;12.13;;;;;;;;;;690354;28;1243;-84
2023/10/10 00:09:32;;;;;;;15.90;11.82;;;;;;;;;;691823;28;1331;-83
2023/10/10 00:09:56;;;;;;;16.17;11.77;;;;;;;;;;692378;28;1042;-85
2023/10/10 00:10:16;;;;;;;17.75;12.98;;;;;;;;;;693635;28;4321;-85
2023/10/10 00:10:43;;;;;;;18.75;12.90;;;;;;;;;;697896;28;839;-83
2023/10/10 00:11:10;;;;;;;16.88;12.65;;;;;;;;;;695633;28;1170;-85
2023/10/10 00:11:38;;;;;;;17.42;12.77;;;;;;;;;;698651;28;1328;-83
2023/10/10 00:11:59;;;;;;;16.38;11.77;;;;;;;;;;696174;28;880;-85
2023/10/10 00:12:26;;;;;;;15.40;12.10;;;;;;;;;;697500;28;995;-82
2023/10/10 00:13:03;;;;;;;17.88;12.38;;;;;;;;;;696605;28;1130;-85
2023/10/10 00:13:31;;;;;;;16.55;12.38;;;;;;;;;;691968;28;4767;-85
2023/10/10 00:14:05;;;;;;;16.45;11.90;;;;;;;;;;696917;28;1373;-85
2023/10/10 00:14:34;;;;;;;16.67;12.60;;;;;;;;;;693927;28;1145;-85
2023/10/10 00:14:57;;;;;;;15.68;12.45;;;;;;;;;;694456;28;1027;-85
2023/10/10 00:15:23;;;;;;;17.50;12.70;;;;;;;;;;691735;28;962;-86
2023/10/10 00:16:04;;;;;;;17.42;13.05;;;;;;;;;;690820;28;1228;-86
2023/10/10 00:16:35;;;;;;;17.38;13.30;;;;;;;;;;693041;28;4738;-86
2023/10/10 00:16:59;;;;;;;17.98;13.13;;;;;;;;;;695273;28;1139;-83
2023/10/10 00:17:23;;;;;;;16.63;12.80;;;;;;;;;;695395;28;1274;-84
2023/10/10 00:17:43;;;;;;;17.50;12.98;;;;;;;;;;695771;28;1293;-83
2023/10/10 00:18:07;;;;;;;17.55;12.75;;;;;;;;;;695169;28;1136;-87
2023/10/10 00:18:29;;;;;;;16.98;12.43;;;;;;;;;;694945;28;1258;-84
2023/10/10 00:18:55;;;;;;;18.63;12.90;;;;;;;;;;692928;28;1451;-84
2023/10/10 00:20:21;;;;;;;17.50;12.52;;;;;;;;;;689614;28;3891;-85
2023/10/10 00:20:41;;;;;;;16.25;12.30;;;;;;;;;;690382;28;968;-85
2023/10/10 00:21:06;;;;;;;17.83;12.85;;;;;;;;;;690363;28;1392;-84
2023/10/10 00:21:28;;;;;;;17.40;13.00;;;;;;;;;;690014;28;1026;-86
2023/10/10 00:22:35;;;;;;;18.42;13.23;;;;;;;;;;675877;28;5270;-86
2023/10/10 00:22:58;;;;;;;17.58;13.02;;;;;;;;;;696474;28;1238;-85
2023/10/10 00:23:19;;;;;;;19.13;13.13;;;;;;;;;;694513;28;1292;-84
2023/10/10 00:23:47;;;;;;;17.08;13.38;;;;;;;;;;696223;28;895;-88
2023/10/10 00:24:12;;;;;;;16.60;12.65;;;;;;;;;;693462;28;1211;-87
2023/10/10 00:24:33;;;;;;;17.00;12.55;;;;;;;;;;693195;28;944;-85
2023/10/10 00:24:53;;;;;;;18.10;12.45;;;;;;;;;;695822;28;1455;-84
2023/10/10 00:25:24;;;;;;;19.33;12.63;;;;;;;;;;693752;28;4359;-85
2023/10/10 00:25:47;;;;;;;15.90;12.77;;;;;;;;;;696083;28;948;-84
2023/10/10 00:26:12;;;;;;;16.90;12.43;;;;;;;;;;700970;28;851;-85
2023/10/10 00:26:34;;;;;;;17.70;11.90;;;;;;;;;;695855;28;1693;-84
2023/10/10 00:27:15;;;;;;;17.85;12.27;;;;;;;;;;694138;28;1401;-86
2023/10/10 00:27:36;;;;;;;16.98;12.80;;;;;;;;;;695621;28;1194;-85
2023/10/10 00:28:00;;;;;;;16.73;12.70;;;;;;;;;;695609;28;1458;-85
2023/10/10 00:28:27;;;;;;;15.85;12.30;;;;;;;;;;694357;28;4301;-82
2023/10/10 00:28:54;;;;;;;15.10;11.93;;;;;;;;;;693042;28;947;-81
2023/10/10 00:29:19;;;;;;;16.77;12.43;;;;;;;;;;692881;28;1009;-85
2023/10/10 00:29:43;;;;;;;15.27;11.75;;;;;;;;;;698406;28;1441;-85
2023/10/10 00:30:04;;;;;;;16.95;12.32;;;;;;;;;;691762;28;1359;-83
2023/10/10 00:30:33;;;;;;;16.58;12.38;;;;;;;;;;688681;28;1497;-86
2023/10/10 00:30:54;;;;;;;18.92;12.30;;;;;;;;;;693043;28;923;-85
2023/10/10 00:31:21;;;;;;;17.88;12.20;;;;;;;;;;693346;28;4251;-85
2023/10/10 00:31:54;;;;;;;15.55;11.95;;;;;;;;;;694289;28;805;-84
2023/10/10 00:32:22;;;;;;;17.27;12.20;;;;;;;;;;694830;28;1013;-84
2023/10/10 00:32:46;;;;;;;16.80;11.93;;;;;;;;;;694940;28;1282;-84
2023/10/10 00:33:09;;;;;;;15.60;11.55;;;;;;;;;;696722;28;1121;-82
2023/10/10 00:33:34;;;;;;;16.77;12.55;;;;;;;;;;696006;28;1294;-85
2023/10/10 00:33:58;;;;;;;17.67;12.48;;;;;;;;;;695693;28;1154;-85
2023/10/10 00:34:21;;;;;;;16.38;12.45;;;;;;;;;;693598;28;4281;-85
2023/10/10 00:34:48;;;;;;;16.80;12.55;;;;;;;;;;695927;28;1351;-85
2023/10/10 00:35:27;;;;;;;16.83;12.32;;;;;;;;;;698666;28;883;-83
2023/10/10 00:35:47;;;;;;;16.75;12.35;;;;;;;;;;698219;28;808;-82
2023/10/10 00:36:21;;;;;;;18.02;12.60;;;;;;;;;;698833;28;1240;-85
2023/10/10 00:36:42;;;;;;;17.08;12.23;;;;;;;;;;701207;28;1573;-85
2023/10/10 00:37:08;;;;;;;16.38;12.05;;;;;;;;;;698352;28;1170;-83
2023/10/10 00:37:34;;;;;;;16.98;12.55;;;;;;;;;;684312;28;4657;-84
2023/10/10 00:37:57;;;;;;;17.55;13.00;;;;;;;;;;694878;28;1290;-84
2023/10/10 00:38:24;;;;;;;17.08;12.30;;;;;;;;;;691919;28;1066;-83
2023/10/10 00:39:01;;;;;;;18.42;12.55;;;;;;;;;;687732;28;1315;-83
2023/10/10 00:39:30;;;;;;;18.90;12.43;;;;;;;;;;689133;28;1167;-84
2023/10/10 00:39:53;;;;;;;17.90;12.80;;;;;;;;;;691769;28;844;-84
2023/10/10 00:40:25;;;;;;;16.88;12.63;;;;;;;;;;692271;28;5213;-85
2023/10/10 00:40:47;;;;;;;18.08;12.85;;;;;;;;;;692146;28;1365;-86
2023/10/10 00:41:15;;;;;;;18.83;13.18;;;;;;;;;;691628;28;813;-86
2023/10/10 00:41:51;;;;;;;19.05;12.85;;;;;;;;;;692243;28;966;-85
2023/10/10 00:42:19;;;;;;;17.83;12.95;;;;;;;;;;696839;28;1328;-80
2023/10/10 00:42:42;;;;;;;18.85;13.23;;;;;;;;;;696276;28;903;-85
2023/10/10 00:43:04;;;;;;;18.88;13.05;;;;;;;;;;696418;28;852;-83
2023/10/10 00:43:25;;;;;;;18.40;13.32;;;;;;;;;;693282;28;5017;-85
2023/10/10 00:43:45;;;;;;;18.98;13.40;;;;;;;;;;693207;28;1240;-85
2023/10/10 00:44:12;;;;;;;18.27;13.13;;;;;;;;;;694801;28;789;-85
2023/10/10 00:44:39;;;;;;;16.83;12.25;;;;;;;;;;695830;28;1448;-84
2023/10/10 00:45:04;;;;;;;17.77;12.07;;;;;;;;;;696391;28;1317;-85
2023/10/10 00:45:33;;;;;;;20.52;14.00;;;;;;;;;;694654;28;1246;-85
2023/10/10 00:45:55;;;;;;;20.48;13.40;;;;;;;;;;693177;28;868;-84
2023/10/10 00:46:17;;;;;;;18.80;13.57;;;;;;;;;;683244;28;4387;-84
2023/10/10 00:46:38;;;;;;;18.10;14.00;;;;;;;;;;694536;28;1220;-84
2023/10/10 00:47:03;;;;;;;17.75;13.18;;;;;;;;;;698696;28;1930;-87
2023/10/10 00:47:25;;;;;;;20.33;14.20;;;;;;;;;;694203;28;1291;-84
2023/10/10 00:47:52;;;;;;;18.90;13.73;;;;;;;;;;695608;28;1274;-84
2023/10/10 00:48:16;;;;;;;16.73;13.13;;;;;;;;;;697065;28;1282;-80
2023/10/10 00:48:38;;;;;;;16.88;13.05;;;;;;;;;;697336;28;871;-85
2023/10/10 00:49:00;;;;;;;17.67;13.13;;;;;;;;;;693934;28;1270;-86
2023/10/10 00:49:25;;;;;;;17.70;13.15;;;;;;;;;;682553;28;4395;-85
2023/10/10 00:49:46;;;;;;;18.75;13.27;;;;;;;;;;695299;28;1455;-83
2023/10/10 00:50:25;;;;;;;17.92;12.95;;;;;;;;;;698730;28;1353;-86
2023/10/10 00:50:53;;;;;;;19.58;13.55;;;;;;;;;;696669;28;1456;-83
2023/10/10 00:51:20;;;;;;;18.35;13.00;;;;;;;;;;695036;28;1222;-83
2023/10/10 00:51:46;;;;;;;19.67;13.82;;;;;;;;;;698510;28;895;-86
2023/10/10 00:52:12;;;;;;;19.35;13.60;;;;;;;;;;685482;28;4252;-85
2023/10/10 00:52:36;;;;;;;18.67;13.77;;;;;;;;;;697673;28;1344;-81
2023/10/10 00:53:00;;;;;;;18.38;14.05;;;;;;;;;;699016;28;907;-86
2023/10/10 00:53:27;;;;;;;18.08;13.40;;;;;;;;;;697747;28;1097;-86
2023/10/10 00:54:09;;;;;;;17.73;12.88;;;;;;;;;;695317;28;844;-84
2023/10/10 00:54:39;;;;;;;21.42;14.57;;;;;;;;;;698251;28;864;-86
2023/10/10 00:55:03;;;;;;;19.35;14.32;;;;;;;;;;695158;28;1498;-83
2023/10/10 00:55:24;;;;;;;19.52;13.88;;;;;;;;;;694819;28;4493;-84
2023/10/10 00:55:55;;;;;;;19.45;14.30;;;;;;;;;;698677;28;1288;-81
2023/10/10 00:56:16;;;;;;;21.20;14.68;;;;;;;;;;697198;28;937;-87
2023/10/10 00:56:36;;;;;;;20.10;14.73;;;;;;;;;;695692;28;903;-86
2023/10/10 00:57:07;;;;;;;19.90;14.68;;;;;;;;;;697416;28;832;-86
2023/10/10 00:57:35;;;;;;;19.08;14.82;;;;;;;;;;697285;28;1044;-86
2023/10/10 00:57:58;;;;;;;21.73;15.15;;;;;;;;;;692456;28;1326;-86
2023/10/10 00:58:22;;;;;;;19.67;14.75;;;;;;;;;;690503;28;4268;-84
2023/10/10 00:58:48;;;;;;;20.70;14.90;;;;;;;;;;689366;28;1294;-86
2023/10/10 00:59:08;;;;;;;21.95;15.60;;;;;;;;;;687531;28;1304;-86
2023/10/10 00:59:35;;;;;;;20.20;15.23;;;;;;;;;;690019;28;1323;-84
2023/10/10 01:00:07;;;;;;;18.83;14.95;;;;;;;;;;687671;28;1221;-86
2023/10/10 01:00:32;;;;;;;20.90;14.90;;;;;;;;;;684159;28;956;-85
2023/10/10 01:00:54;;;;;;;19.65;14.65;;;;;;;;;;685630;28;1043;-86
2023/10/10 01:01:19;;;;;;;18.73;14.63;;;;;;;;;;686704;28;4324;-85
2023/10/10 01:01:40;;;;;;;19.83;14.30;;;;;;;;;;692193;28;1537;-85
2023/10/10 01:02:04;;;;;;;19.63;14.50;;;;;;;;;;688979;28;1301;-81
2023/10/10 01:02:25;;;;;;;19.42;14.35;;;;;;;;;;689289;28;1292;-84
2023/10/10 01:03:00;;;;;;;20.13;14.88;;;;;;;;;;692783;28;1442;-85
2023/10/10 01:03:23;;;;;;;21.40;15.40;;;;;;;;;;687694;28;1410;-82
2023/10/10 01:03:49;;;;;;;20.08;14.57;;;;;;;;;;690346;28;805;-85
2023/10/10 01:04:11;;;;;;;21.17;15.60;;;;;;;;;;688852;28;4254;-83
2023/10/10 01:04:35;;;;;;;18.48;14.32;;;;;;;;;;686764;28;1291;-86
2023/10/10 01:04:56;;;;;;;21.30;14.82;;;;;;;;;;692000;28;1314;-85
2023/10/10 01:05:24;;;;;;;20.70;14.93;;;;;;;;;;685634;28;1379;-85
2023/10/10 01:05:52;;;;;;;20.52;14.73;;;;;;;;;;688905;28;852;-86
2023/10/10 01:06:24;;;;;;;21.13;15.23;;;;;;;;;;689527;28;904;-86
2023/10/10 01:06:51;;;;;;;18.90;14.43;;;;;;;;;;692187;28;1966;-86
2023/10/10 01:07:18;;;;;;;18.77;14.45;;;;;;;;;;692282;28;4276;-85
2023/10/10 01:07:39;;;;;;;20.55;14.55;;;;;;;;;;693910;28;822;-86
2023/10/10 01:08:08;;;;;;;19.63;15.00;;;;;;;;;;691984;28;1234;-86
2023/10/10 01:08:58;;;;;;;20.55;14.70;;;;;;;;;;688317;28;955;-85
2023/10/10 01:09:32;;;;;;;21.88;14.75;;;;;;;;;;690564;28;935;-86
2023/10/10 01:09:56;;;;;;;18.92;14.50;;;;;;;;;;692422;28;1275;-85
2023/10/10 01:10:17;;;;;;;20.40;14.35;;;;;;;;;;687867;28;4471;-85
2023/10/10 01:10:43;;;;;;;20.23;14.27;;;;;;;;;;687970;28;1410;-84
2023/10/10 01:11:05;;;;;;;20.25;14.25;;;;;;;;;;692791;28;1351;-84
2023/10/10 01:11:28;;;;;;;19.63;14.65;;;;;;;;;;692353;28;1427;-86
2023/10/10 01:11:49;;;;;;;20.90;14.85;;;;;;;;;;692664;28;1382;-85
2023/10/10 01:12:10;;;;;;;21.30;14.77;;;;;;;;;;690511;28;1261;-84
2023/10/10 01:12:35;;;;;;;21.65;14.25;;;;;;;;;;694850;28;1466;-83
2023/10/10 01:12:56;;;;;;;20.17;14.23;;;;;;;;;;695712;28;1140;-86
2023/10/10 01:13:19;;;;;;;20.25;14.73;;;;;;;;;;693371;28;4323;-85
2023/10/10 01:13:40;;;;;;;20.53;14.67;;;;;;;;;;697477;28;1365;-86
2023/10/10 01:14:04;;;;;;;21.13;14.55;;;;;;;;;;694936;28;1576;-86
2023/10/10 01:14:30;;;;;;;19.48;14.60;;;;;;;;;;694231;28;1352;-85
2023/10/10 01:14:57;;;;;;;19.33;13.90;;;;;;;;;;689091;28;836;-87
2023/10/10 01:15:25;;;;;;;19.00;14.70;;;;;;;;;;691250;28;1278;-86
2023/10/10 01:15:56;;;;;;;18.83;13.95;;;;;;;;;;688863;28;1332;-86
2023/10/10 01:16:17;;;;;;;19.00;14.30;;;;;;;;;;684272;28;4310;-86
2023/10/10 01:16:47;;;;;;;19.67;13.98;;;;;;;;;;697069;28;1177;-84
2023/10/10 01:17:11;;;;;;;20.40;14.18;;;;;;;;;;697313;28;851;-86
2023/10/10 01:17:35;;;;;;;18.38;13.95;;;;;;;;;;697293;28;899;-85
2023/10/10 01:17:57;;;;;;;17.43;14.00;;;;;;;;;;693159;28;1407;-87
2023/10/10 01:18:17;;;;;;;19.85;14.82;;;;;;;;;;696044;28;923;-86
2023/10/10 01:18:57;;;;;;;19.27;14.65;;;;;;;;;;695898;28;1473;-86
2023/10/10 01:19:28;;;;;;;19.08;14.43;;;;;;;;;;698957;28;4260;-87
2023/10/10 01:19:51;;;;;;;19.30;14.75;;;;;;;;;;695971;28;1462;-85
2023/10/10 01:20:24;;;;;;;17.77;14.15;;;;;;;;;;691548;28;1301;-85
2023/10/10 01:20:49;;;;;;;20.30;15.38;;;;;;;;;;689736;28;1504;-85
2023/10/10 01:21:18;;;;;;;21.63;15.70;;;;;;;;;;688492;28;818;-86
2023/10/10 01:21:48;;;;;;;20.90;15.68;;;;;;;;;;696730;28;885;-85
2023/10/10 01:22:22;;;;;;;19.55;15.27;;;;;;;;;;698040;28;4263;-85
2023/10/10 01:22:46;;;;;;;20.90;14.95;;;;;;;;;;700447;28;904;-85
2023/10/10 01:23:09;;;;;;;19.95;14.95;;;;;;;;;;697919;28;1260;-86
2023/10/10 01:23:33;;;;;;;20.05;15.52;;;;;;;;;;695062;28;1084;-85
2023/10/10 01:23:58;;;;;;;21.15;15.73;;;;;;;;;;694412;28;1305;-85
2023/10/10 01:24:21;;;;;;;20.90;15.77;;;;;;;;;;695317;28;1249;-83
2023/10/10 01:24:42;;;;;;;21.65;15.23;;;;;;;;;;695914;28;1240;-86
2023/10/10 01:25:31;;;;;;;21.45;15.55;;;;;;;;;;691458;28;4363;-85
2023/10/10 01:25:52;;;;;;;21.48;15.70;;;;;;;;;;698075;28;1326;-85
2023/10/10 01:26:28;;;;;;;19.73;15.13;;;;;;;;;;698760;28;1570;-84
2023/10/10 01:27:03;;;;;;;;;;;;;;;;;;;;;
2023/10/10 01:27:26;;;;;;;20.10;14.90;;;;;;;;;;699649;28;915;-85
2023/10/10 01:27:53;;;;;;;21.63;15.52;;;;;;;;;;698309;28;860;-84
2023/10/10 01:28:23;;;;;;;20.73;15.07;;;;;;;;;;695492;28;4291;-83
2023/10/10 01:28:46;;;;;;;20.88;14.80;;;;;;;;;;694460;28;844;-85
2023/10/10 01:29:28;;;;;;;21.40;15.13;;;;;;;;;;694600;28;1381;-83
2023/10/10 01:29:56;;;;;;;20.30;15.35;;;;;;;;;;695810;28;1156;-87
2023/10/10 01:30:17;;;;;;;21.40;15.48;;;;;;;;;;697292;28;948;-85
2023/10/10 01:30:57;;;;;;;21.27;15.75;;;;;;;;;;695529;28;1295;-87
2023/10/10 01:31:17;;;;;;;22.65;15.55;;;;;;;;;;693694;28;4354;-86
2023/10/10 01:31:38;;;;;;;20.02;15.07;;;;;;;;;;694014;28;1163;-85
2023/10/10 01:31:59;;;;;;;19.13;14.98;;;;;;;;;;692875;28;1291;-84
2023/10/10 01:32:21;;;;;;;20.17;15.38;;;;;;;;;;693126;28;1387;-85
2023/10/10 01:32:42;;;;;;;23.08;16.17;;;;;;;;;;689992;28;860;-85
2023/10/10 01:33:05;;;;;;;21.70;16.13;;;;;;;;;;695016;28;932;-85
2023/10/10 01:33:36;;;;;;;22.83;16.58;;;;;;;;;;692178;28;1039;-84
2023/10/10 01:34:00;;;;;;;21.65;15.88;;;;;;;;;;692287;28;1363;-82
2023/10/10 01:34:39;;;;;;;22.02;15.93;;;;;;;;;;684873;28;4252;-85
2023/10/10 01:35:05;;;;;;;20.58;15.70;;;;;;;;;;696057;28;1098;-85
2023/10/10 01:35:32;;;;;;;21.50;16.05;;;;;;;;;;695138;28;1323;-86
2023/10/10 01:35:55;;;;;;;20.60;15.45;;;;;;;;;;694842;28;758;-85
2023/10/10 01:36:19;;;;;;;20.00;14.63;;;;;;;;;;694356;28;1400;-86
2023/10/10 01:36:41;;;;;;;19.48;15.02;;;;;;;;;;695198;28;1393;-85
2023/10/10 01:37:20;;;;;;;19.25;14.88;;;;;;;;;;692985;28;844;-86
2023/10/10 01:37:41;;;;;;;18.88;15.20;;;;;;;;;;694815;28;5033;-82
2023/10/10 01:38:04;;;;;;;20.05;15.32;;;;;;;;;;692407;28;1272;-85
2023/10/10 01:38:30;;;;;;;20.20;15.30;;;;;;;;;;697612;28;1219;-86
2023/10/10 01:39:07;;;;;;;21.05;15.55;;;;;;;;;;695128;28;1305;-85
2023/10/10 01:39:41;;;;;;;19.38;15.27;;;;;;;;;;691650;28;965;-84
2023/10/10 01:40:23;;;;;;;20.50;14.93;;;;;;;;;;694894;28;919;-86
2023/10/10 01:40:43;;;;;;;20.70;14.18;;;;;;;;;;698306;28;5210;-85
2023/10/10 01:41:14;;;;;;;20.63;15.13;;;;;;;;;;700229;28;776;-85
2023/10/10 01:41:38;;;;;;;20.75;15.20;;;;;;;;;;698380;28;1291;-85
2023/10/10 01:41:59;;;;;;;19.63;14.98;;;;;;;;;;695354;28;847;-83
2023/10/10 01:42:30;;;;;;;19.53;14.87;;;;;;;;;;694590;28;6358;-85
2023/10/10 01:43:10;;;;;;;20.15;15.10;;;;;;;;;;691724;28;1490;-86
2023/10/10 01:43:32;;;;;;;20.75;15.18;;;;;;;;;;695819;28;4682;-83
2023/10/10 01:43:53;;;;;;;19.88;14.20;;;;;;;;;;696575;28;832;-83
2023/10/10 01:44:22;;;;;;;19.98;14.50;;;;;;;;;;698512;28;907;-85
2023/10/10 01:44:43;;;;;;;19.10;15.02;;;;;;;;;;696086;28;1227;-84
2023/10/10 01:45:07;;;;;;;21.55;15.75;;;;;;;;;;693163;28;1184;-85
2023/10/10 01:45:29;;;;;;;20.55;15.20;;;;;;;;;;688650;28;903;-84
2023/10/10 01:46:08;;;;;;;20.15;14.57;;;;;;;;;;688706;28;2988;-83
2023/10/10 01:46:29;;;;;;;20.92;15.13;;;;;;;;;;686908;28;4981;-86
2023/10/10 01:46:58;;;;;;;20.27;15.48;;;;;;;;;;693791;28;1981;-85
2023/10/10 01:47:34;;;;;;;20.48;14.73;;;;;;;;;;691371;28;1316;-87
2023/10/10 01:47:57;;;;;;;21.65;15.32;;;;;;;;;;694534;28;1579;-84
2023/10/10 01:48:24;;;;;;;20.67;15.07;;;;;;;;;;693529;28;1088;-87
2023/10/10 01:48:44;;;;;;;21.95;14.93;;;;;;;;;;695922;28;1388;-87
2023/10/10 01:49:08;;;;;;;22.90;15.07;;;;;;;;;;696375;28;4347;-83
2023/10/10 01:49:29;;;;;;;21.05;15.32;;;;;;;;;;695607;28;930;-86
2023/10/10 01:49:54;;;;;;;20.27;15.70;;;;;;;;;;696651;28;1290;-82
2023/10/10 01:50:19;;;;;;;20.08;15.23;;;;;;;;;;695619;28;855;-84
2023/10/10 01:50:39;;;;;;;22.23;16.00;;;;;;;;;;690774;28;1374;-85
2023/10/10 01:51:00;;;;;;;22.55;16.15;;;;;;;;;;689432;28;776;-84
2023/10/10 01:51:29;;;;;;;21.02;15.63;;;;;;;;;;689225;28;1364;-85
2023/10/10 01:51:58;;;;;;;22.70;14.95;;;;;;;;;;692791;28;1168;-83
2023/10/10 01:52:21;;;;;;;21.42;14.75;;;;;;;;;;688140;28;5341;-83
2023/10/10 01:52:45;;;;;;;20.88;15.20;;;;;;;;;;692830;28;1323;-84
2023/10/10 01:53:13;;;;;;;18.75;15.10;;;;;;;;;;692970;28;896;-85
2023/10/10 01:53:40;;;;;;;20.80;15.20;;;;;;;;;;690455;28;1255;-85
2023/10/10 01:54:12;;;;;;;18.80;14.63;;;;;;;;;;693974;28;1250;-83
2023/10/10 01:54:40;;;;;;;20.05;15.30;;;;;;;;;;689521;28;1209;-86
2023/10/10 01:55:10;;;;;;;20.95;15.32;;;;;;;;;;691620;28;851;-84
2023/10/10 01:55:30;;;;;;;20.98;15.05;;;;;;;;;;688120;28;4974;-86
2023/10/10 01:55:53;;;;;;;21.42;15.40;;;;;;;;;;693520;28;1377;-85
2023/10/10 01:56:14;;;;;;;20.88;15.57;;;;;;;;;;693505;28;1398;-85
2023/10/10 01:56:38;;;;;;;21.83;15.68;;;;;;;;;;695359;28;983;-85
2023/10/10 01:57:03;;;;;;;24.45;16.35;;;;;;;;;;695439;28;1350;-86
2023/10/10 01:57:24;;;;;;;21.10;15.60;;;;;;;;;;692585;28;1259;-86
2023/10/10 01:57:52;;;;;;;22.45;15.80;;;;;;;;;;694415;28;859;-81
2023/10/10 01:58:13;;;;;;;21.27;15.80;;;;;;;;;;690412;28;4469;-85
2023/10/10 01:58:39;;;;;;;22.95;16.02;;;;;;;;;;693007;28;1238;-85
2023/10/10 01:59:02;;;;;;;20.27;15.63;;;;;;;;;;696600;28;1565;-86
2023/10/10 01:59:37;;;;;;;21.63;15.13;;;;;;;;;;697900;28;1239;-85
2023/10/10 02:00:02;;;;;;;20.10;15.35;;;;;;;;;;697617;28;942;-86
2023/10/10 02:00:34;;;;;;;20.90;15.40;;;;;;;;;;695478;28;1370;-85
2023/10/10 02:00:54;;;;;;;21.80;15.68;;;;;;;;;;695812;28;1299;-82
2023/10/10 02:01:19;;;;;;;21.15;15.45;;;;;;;;;;692195;28;4299;-84
2023/10/10 02:01:41;;;;;;;21.23;14.95;;;;;;;;;;692674;28;1244;-84
2023/10/10 02:02:13;;;;;;;22.90;15.50;;;;;;;;;;693161;28;1401;-81
2023/10/10 02:02:36;;;;;;;20.65;15.10;;;;;;;;;;692300;28;914;-86
2023/10/10 02:03:01;;;;;;;21.67;15.30;;;;;;;;;;695843;28;749;-86
2023/10/10 02:03:21;;;;;;;20.75;15.18;;;;;;;;;;698045;28;1282;-85
2023/10/10 02:03:42;;;;;;;20.87;15.13;;;;;;;;;;695488;28;1382;-86
2023/10/10 02:04:06;;;;;;;20.23;15.23;;;;;;;;;;696334;28;1341;-82
2023/10/10 02:04:29;;;;;;;20.70;14.98;;;;;;;;;;690614;28;4660;-85
2023/10/10 02:04:56;;;;;;;22.67;14.88;;;;;;;;;;694309;28;1387;-85
2023/10/10 02:05:59;;;;;;;22.85;15.32;;;;;;;;;;693490;28;1147;-86
2023/10/10 02:06:00;;;;;;;22.42;15.85;;;;;;;;;;687819;28;1459;-83
2023/10/10 02:07:06;;;;;;;22.77;15.30;;;;;;;;;;688839;28;1118;-86
2023/10/10 02:07:14;;;;;;;22.38;15.02;;;;;;;;;;687438;28;4348;-81
2023/10/10 02:07:39;;;;;;;21.05;14.93;;;;;;;;;;689607;28;1165;-85
2023/10/10 02:08:00;;;;;;;20.70;15.23;;;;;;;;;;692564;28;1308;-84
2023/10/10 02:08:28;;;;;;;21.90;15.47;;;;;;;;;;697453;28;1107;-86
2023/10/10 02:08:51;;;;;;;20.47;15.17;;;;;;;;;;697996;28;1313;-85
2023/10/10 02:09:18;;;;;;;19.83;15.48;;;;;;;;;;694032;28;1279;-87
2023/10/10 02:09:43;;;;;;;20.90;15.45;;;;;;;;;;693347;28;1158;-86
2023/10/10 02:10:32;;;;;;;19.90;15.52;;;;;;;;;;690780;28;4739;-87
2023/10/10 02:10:55;;;;;;;22.17;15.33;;;;;;;;;;696316;28;1218;-85
2023/10/10 02:11:21;;;;;;;19.30;14.57;;;;;;;;;;693689;28;1407;-81
2023/10/10 02:11:56;;;;;;;19.85;14.50;;;;;;;;;;696373;28;843;-86
2023/10/10 02:12:19;;;;;;;18.13;13.75;;;;;;;;;;695426;28;3417;-87
2023/10/10 02:12:46;;;;;;;18.40;14.10;;;;;;;;;;695083;28;1083;-84
2023/10/10 02:13:07;;;;;;;19.83;14.32;;;;;;;;;;687841;28;4512;-83
2023/10/10 02:13:33;;;;;;;20.45;14.73;;;;;;;;;;694406;28;1684;-86
2023/10/10 02:13:58;;;;;;;20.20;14.57;;;;;;;;;;695899;28;1275;-84
2023/10/10 02:14:25;;;;;;;18.90;14.30;;;;;;;;;;694850;28;1059;-83
2023/10/10 02:14:57;;;;;;;18.73;13.90;;;;;;;;;;691042;28;1323;-86
2023/10/10 02:15:26;;;;;;;19.60;14.13;;;;;;;;;;690676;28;1204;-86
2023/10/10 02:15:46;;;;;;;18.48;14.43;;;;;;;;;;694251;28;1436;-82
2023/10/10 02:16:11;;;;;;;18.58;13.85;;;;;;;;;;697232;28;4237;-86
2023/10/10 02:16:36;;;;;;;17.65;13.48;;;;;;;;;;692389;28;1287;-87
2023/10/10 02:17:08;;;;;;;18.52;13.57;;;;;;;;;;686680;28;1164;-87
2023/10/10 02:17:39;;;;;;;17.92;13.10;;;;;;;;;;688524;28;1427;-85
2023/10/10 02:18:12;;;;;;;19.77;13.38;;;;;;;;;;692876;28;1212;-84
2023/10/10 02:18:44;;;;;;;19.00;13.82;;;;;;;;;;695512;28;943;-84
2023/10/10 02:19:15;;;;;;;19.55;13.85;;;;;;;;;;692986;28;4386;-85
2023/10/10 02:19:40;;;;;;;19.88;13.98;;;;;;;;;;692696;28;1437;-85
2023/10/10 02:20:19;;;;;;;19.98;13.73;;;;;;;;;;692227;28;1471;-86
2023/10/10 02:21:09;;;;;;;18.95;13.20;;;;;;;;;;695739;28;1135;-85
2023/10/10 02:21:34;;;;;;;19.17;13.82;;;;;;;;;;691887;28;2092;-83
2023/10/10 02:22:22;;;;;;;19.55;13.10;;;;;;;;;;693236;28;1461;-84
2023/10/10 02:22:51;;;;;;;18.90;13.48;;;;;;;;;;694171;28;4680;-87
2023/10/10 02:23:45;;;;;;;17.48;13.75;;;;;;;;;;698783;28;1054;-86
2023/10/10 02:24:38;;;;;;;17.92;14.25;;;;;;;;;;692739;28;1490;-82
2023/10/10 02:25:37;;;;;;;17.98;13.40;;;;;;;;;;694307;28;1469;-86
2023/10/10 02:25:53;;;;;;;17.67;13.25;;;;;;;;;;693469;28;5020;-86
2023/10/10 02:27:13;;;;;;;18.77;13.35;;;;;;;;;;687841;28;1389;-85
2023/10/10 02:27:54;;;;;;;17.37;13.23;;;;;;;;;;685099;28;1176;-85
2023/10/10 02:28:47;;;;;;;17.13;12.97;;;;;;;;;;686105;28;1170;-85
2023/10/10 02:29:18;;;;;;;17.25;12.70;;;;;;;;;;686748;28;753;-86
2023/10/10 02:29:48;;;;;;;17.48;12.75;;;;;;;;;;685620;28;1777;-86
2023/10/10 02:30:12;;;;;;;16.90;12.88;;;;;;;;;;693548;28;1543;-85
2023/10/10 02:30:36;;;;;;;16.92;12.73;;;;;;;;;;694708;28;1358;-86
2023/10/10 02:31:02;;;;;;;17.23;12.80;;;;;;;;;;695649;28;9888;-84
2023/10/10 02:31:28;;;;;;;16.95;12.70;;;;;;;;;;688783;28;5719;-84
2023/10/10 02:32:05;;;;;;;15.85;12.75;;;;;;;;;;698625;28;1392;-82
2023/10/10 02:32:29;;;;;;;16.02;12.43;;;;;;;;;;697913;28;1262;-86
2023/10/10 02:32:52;;;;;;;17.90;13.05;;;;;;;;;;696176;28;812;-84
2023/10/10 02:33:48;;;;;;;17.38;12.55;;;;;;;;;;702515;28;1259;-83
2023/10/10 02:34:10;;;;;;;17.17;12.77;;;;;;;;;;701722;28;4203;-85
2023/10/10 02:34:34;;;;;;;17.23;12.70;;;;;;;;;;700482;28;886;-86
2023/10/10 02:35:34;;;;;;;16.58;12.10;;;;;;;;;;701325;28;1361;-87
2023/10/10 02:35:57;;;;;;;17.13;12.18;;;;;;;;;;697866;28;1239;-84
2023/10/10 02:36:30;;;;;;;17.27;12.07;;;;;;;;;;694752;28;924;-84
2023/10/10 02:37:13;;;;;;;17.42;12.75;;;;;;;;;;696441;28;1240;-85
2023/10/10 02:37:45;;;;;;;17.15;12.43;;;;;;;;;;694765;28;4684;-87
2023/10/10 02:38:12;;;;;;;17.02;12.10;;;;;;;;;;694528;28;1394;-83
2023/10/10 02:38:39;;;;;;;16.67;12.40;;;;;;;;;;693397;28;1340;-87
2023/10/10 02:39:47;;;;;;;16.48;12.20;;;;;;;;;;693455;28;5756;-86
2023/10/10 02:40:31;;;;;;;16.42;11.95;;;;;;;;;;694286;28;1062;-85
2023/10/10 02:41:48;;;;;;;15.68;11.63;;;;;;;;;;697879;28;1104;-87
2023/10/10 02:42:19;;;;;;;17.02;12.57;;;;;;;;;;698272;28;1246;-84
2023/10/10 02:42:39;;;;;;;16.35;11.32;;;;;;;;;;695360;28;1452;-87
2023/10/10 02:43:33;;;;;;;15.82;11.85;;;;;;;;;;696696;28;950;-85
2023/10/10 02:43:56;;;;;;;17.45;12.80;;;;;;;;;;693701;28;4612;-85
2023/10/10 02:44:26;;;;;;;17.08;12.55;;;;;;;;;;689201;28;1304;-86
2023/10/10 02:44:57;;;;;;;17.60;12.57;;;;;;;;;;691881;28;1205;-87
2023/10/10 02:45:27;;;;;;;17.20;12.48;;;;;;;;;;689375;28;1481;-86
2023/10/10 02:45:48;;;;;;;16.80;12.52;;;;;;;;;;694207;28;1466;-81
2023/10/10 02:46:10;;;;;;;16.30;12.43;;;;;;;;;;694474;28;4253;-84
2023/10/10 02:46:38;;;;;;;18.35;12.65;;;;;;;;;;692149;28;1417;-85
2023/10/10 02:46:59;;;;;;;16.60;12.60;;;;;;;;;;693712;28;1910;-86
2023/10/10 02:47:32;;;;;;;15.80;12.20;;;;;;;;;;695286;28;1322;-84
2023/10/10 02:47:54;;;;;;;17.00;12.40;;;;;;;;;;696050;28;866;-86